Terminal Aerodrome Forecast
Issued by NWS Sterling, VA

Home | Current Version | Previous Version | Text Only | Print | Product List | Glossary On
Versions: 1 2 3 4 5 6 7 8 9 10 11 12 13
000
FTUS41 KLWX 250500
TAFMRB
TAF
KMRB 250540Z 2506/2606 VRB03KT P6SM BKN200
     FM251300 12010KT P6SM BKN200
     FM251800 15014G22KT 3SM SHRA OVC050
     FM252100 13008KT 3SM SHRA OVC008
     FM260200 22005KT 3SM BR BKN008
     FM260400 26010KT P6SM SCT120=

USA.gov is the U.S. government's official web portal to all federal, state and local government web resources and services.